Time;durP1;ratioP1;P1;durP2;ratioP2;P2;SDS_P1;SDS_P2;PMS_P1;PMS_P2;Temp;Humidity;BMP_temperature;BMP_pressure;BME280_temperature;BME280_humidity;BME280_pressure;Samples;Min_cycle;Max_cycle;Signal;HPM_P1;HPM_P2
2023/06/16 00:00:37;;;;;;;;;;;13.00;99.90;;;;;;5122749;27;20528;-58
2023/06/16 00:03:05;;;;;;;8.10;4.88;;;13.00;99.90;;;;;;5116930;27;20421;-58
2023/06/16 00:05:34;;;;;;;7.00;5.40;;;12.90;99.90;;;;;;5122039;27;20039;-59
2023/06/16 00:08:03;;;;;;;9.40;4.95;;;12.90;99.90;;;;;;5135063;27;20035;-56
2023/06/16 00:10:30;;;;;;;6.13;4.80;;;13.00;99.90;;;;;;5126675;27;20043;-58
2023/06/16 00:12:57;;;;;;;9.45;5.38;;;13.10;99.90;;;;;;5129533;27;20121;-59
2023/06/16 00:15:24;;;;;;;5.95;4.78;;;13.10;99.90;;;;;;5122738;27;20122;-59
2023/06/16 00:17:52;;;;;;;7.43;5.20;;;13.10;99.90;;;;;;5118377;27;20059;-59
2023/06/16 00:20:24;;;;;;;7.63;4.95;;;13.00;99.90;;;;;;5114676;27;20054;-59
2023/06/16 00:22:50;;;;;;;6.25;4.63;;;12.80;99.90;;;;;;5107778;27;20415;-59
2023/06/16 00:25:18;;;;;;;6.97;5.22;;;12.70;99.90;;;;;;5134920;27;20047;-58
2023/06/16 00:27:46;;;;;;;6.47;4.80;;;12.60;99.90;;;;;;5112623;27;20059;-58
2023/06/16 00:30:13;;;;;;;8.63;5.13;;;12.60;99.90;;;;;;5134406;27;20046;-57
2023/06/16 00:32:40;;;;;;;7.75;5.32;;;12.70;99.90;;;;;;5115594;27;20107;-57
2023/06/16 00:35:07;;;;;;;6.00;5.18;;;12.70;99.90;;;;;;5116637;27;20467;-58
2023/06/16 00:37:35;;;;;;;6.43;4.82;;;12.70;99.90;;;;;;5125790;27;20039;-57
2023/06/16 00:40:04;;;;;;;8.80;5.40;;;12.70;99.90;;;;;;5113322;27;20515;-58
2023/06/16 00:42:31;;;;;;;6.40;5.55;;;12.60;99.90;;;;;;5094826;28;20042;-58
2023/06/16 00:44:59;;;;;;;6.93;5.07;;;12.60;99.90;;;;;;5097040;27;20096;-57
2023/06/16 00:47:26;;;;;;;10.15;5.28;;;12.60;99.90;;;;;;5115708;27;20050;-56
2023/06/16 00:49:53;;;;;;;9.93;5.88;;;12.70;99.90;;;;;;5105762;27;20082;-56
2023/06/16 00:52:24;;;;;;;8.38;5.10;;;12.70;99.90;;;;;;5133977;27;20698;-58
2023/06/16 00:54:51;;;;;;;7.95;4.95;;;12.70;99.90;;;;;;5125414;27;20054;-56
2023/06/16 00:57:18;;;;;;;;;;;12.60;99.90;;;;;;5113477;27;20055;-56
2023/06/16 00:59:46;;;;;;;6.95;5.10;;;12.60;99.90;;;;;;5081608;27;19920;-55
2023/06/16 01:02:13;;;;;;;6.45;5.28;;;12.60;99.90;;;;;;5105356;27;20043;-58
2023/06/16 01:04:40;;;;;;;8.50;5.30;;;12.50;99.90;;;;;;5133900;27;20043;-59
2023/06/16 01:07:18;;;;;;;7.85;5.95;;;12.40;99.90;;;;;;5126478;27;20038;-58
2023/06/16 01:10:07;;;;;;;7.53;5.80;;;12.30;99.90;;;;;;5091178;28;20508;-58
2023/06/16 01:12:47;;;;;;;11.88;5.63;;;12.30;99.90;;;;;;5128950;27;20043;-59
2023/06/16 01:15:20;;;;;;;8.07;5.55;;;12.30;99.90;;;;;;5104999;27;20151;-58
2023/06/16 01:17:48;;;;;;;10.05;5.38;;;12.30;99.90;;;;;;5114953;27;20046;-58
2023/06/16 01:20:43;;;;;;;6.93;5.60;;;12.20;99.90;;;;;;5097904;28;20071;-58
2023/06/16 01:23:41;;;;;;;8.63;5.55;;;12.20;99.90;;;;;;5102096;28;20405;-58
2023/06/16 01:26:10;;;;;;;9.05;5.60;;;12.30;99.90;;;;;;5079592;27;20535;-59
2023/06/16 01:28:41;;;;;;;9.50;5.18;;;12.40;99.90;;;;;;5107507;27;20039;-57
2023/06/16 01:31:12;;;;;;;7.32;5.53;;;12.40;99.90;;;;;;5132602;27;20038;-58
2023/06/16 01:33:40;;;;;;;8.05;5.45;;;12.40;99.90;;;;;;5123978;27;20372;-58
2023/06/16 01:36:08;;;;;;;6.45;5.18;;;12.40;99.90;;;;;;5107793;27;20027;-59
2023/06/16 01:38:36;;;;;;;9.48;5.03;;;12.40;99.90;;;;;;5133309;27;20046;-58
2023/06/16 01:41:03;;;;;;;6.88;5.35;;;12.40;99.90;;;;;;5107590;27;20087;-58
2023/06/16 01:43:32;;;;;;;9.20;5.65;;;12.30;99.90;;;;;;5133074;27;20042;-58
2023/06/16 01:45:59;;;;;;;6.53;4.90;;;12.30;99.90;;;;;;5115741;27;20035;-59
2023/06/16 01:48:27;;;;;;;6.32;4.85;;;12.30;99.90;;;;;;5103482;28;20052;-58
2023/06/16 01:50:54;;;;;;;11.48;5.65;;;12.20;99.90;;;;;;5109678;27;20031;-59
2023/06/16 01:53:21;;;;;;;8.48;5.47;;;12.20;99.90;;;;;;5103841;28;20048;-57
2023/06/16 01:55:50;;;;;;;5.72;5.13;;;12.20;99.90;;;;;;5099986;28;20111;-59
2023/06/16 01:58:19;;;;;;;7.85;5.43;;;12.20;99.90;;;;;;5095467;28;20078;-58
2023/06/16 02:01:18;;;;;;;9.80;5.57;;;12.20;99.90;;;;;;5100202;27;20055;-59
2023/06/16 02:03:50;;;;;;;;;;;12.20;99.90;;;;;;5099607;27;20035;-59
2023/06/16 02:06:23;;;;;;;7.80;5.78;;;12.10;99.90;;;;;;5123484;27;19919;-59
2023/06/16 02:08:53;;;;;;;7.07;5.55;;;12.10;99.90;;;;;;5115665;27;20035;-59
2023/06/16 02:11:21;;;;;;;10.13;5.88;;;12.10;99.90;;;;;;5113893;27;20040;-59
2023/06/16 02:13:49;;;;;;;8.18;5.70;;;12.10;99.90;;;;;;5129613;27;20047;-59
2023/06/16 02:16:19;;;;;;;7.55;6.32;;;12.10;99.90;;;;;;5132650;27;20042;-58
2023/06/16 02:18:45;;;;;;;8.75;5.40;;;12.10;99.90;;;;;;5105121;28;20542;-59
2023/06/16 02:21:12;;;;;;;10.73;5.93;;;12.10;99.90;;;;;;5115507;27;20551;-59
2023/06/16 02:23:39;;;;;;;8.25;5.47;;;12.10;99.90;;;;;;5085015;28;20039;-59
2023/06/16 02:26:06;;;;;;;9.88;5.60;;;12.00;99.90;;;;;;5130773;27;20031;-59
2023/06/16 02:28:32;;;;;;;8.52;6.00;;;12.00;99.90;;;;;;5095908;28;20492;-59
2023/06/16 02:31:01;;;;;;;8.10;6.18;;;12.00;99.90;;;;;;5095050;28;20032;-59
2023/06/16 02:33:28;;;;;;;9.30;5.47;;;12.00;99.90;;;;;;5103538;28;20492;-59
2023/06/16 02:35:55;;;;;;;8.85;6.07;;;11.90;99.90;;;;;;5131206;28;20071;-59
2023/06/16 02:38:22;;;;;;;16.92;6.55;;;11.70;99.90;;;;;;5096843;28;20050;-59
2023/06/16 02:40:49;;;;;;;11.20;6.30;;;11.50;99.90;;;;;;5115103;28;20040;-59
2023/06/16 02:43:15;;;;;;;7.18;6.15;;;11.40;99.90;;;;;;5097408;28;20036;-59
2023/06/16 02:45:42;;;;;;;9.75;5.72;;;11.30;99.90;;;;;;5115260;28;20061;-59
2023/06/16 02:48:10;;;;;;;10.82;6.35;;;11.40;99.90;;;;;;5093691;28;20044;-59
2023/06/16 02:50:36;;;;;;;8.25;5.97;;;11.40;99.90;;;;;;5106936;28;20042;-59
2023/06/16 02:53:07;;;;;;;8.18;6.20;;;11.50;99.90;;;;;;5096101;28;20398;-59
2023/06/16 02:55:33;;;;;;;10.07;6.22;;;11.50;99.90;;;;;;5113526;28;20610;-59
2023/06/16 02:58:01;;;;;;;10.20;6.63;;;11.50;99.90;;;;;;5107583;28;20043;-58
2023/06/16 03:00:28;;;;;;;8.90;6.20;;;11.40;99.90;;;;;;5107885;28;20135;-59
2023/06/16 03:03:17;;;;;;;9.57;6.38;;;11.40;99.90;;;;;;5105223;27;20484;-59
2023/06/16 03:05:53;;;;;;;10.77;6.38;;;11.40;99.90;;;;;;5103758;28;20515;-59
2023/06/16 03:08:21;;;;;;;9.52;6.82;;;11.30;99.90;;;;;;5104751;28;20127;-59
2023/06/16 03:10:48;;;;;;;8.32;6.50;;;11.30;99.90;;;;;;5086285;28;20063;-59
2023/06/16 03:13:22;;;;;;;12.15;6.82;;;11.20;99.90;;;;;;5103199;28;20043;-60
2023/06/16 03:15:52;;;;;;;7.45;6.43;;;11.30;99.90;;;;;;5101195;28;20048;-59
2023/06/16 03:18:19;;;;;;;10.50;7.35;;;11.20;99.90;;;;;;5109190;28;20048;-60
2023/06/16 03:20:47;;;;;;;8.93;6.88;;;11.10;99.90;;;;;;5105825;27;20096;-60
2023/06/16 03:23:20;;;;;;;10.73;6.28;;;11.00;99.90;;;;;;5113223;28;20039;-58
2023/06/16 03:25:47;;;;;;;8.90;6.50;;;11.00;99.90;;;;;;5113589;28;20051;-57
2023/06/16 03:28:18;;;;;;;9.10;6.85;;;11.00;99.90;;;;;;5108369;28;20040;-60
2023/06/16 03:30:45;;;;;;;7.53;5.70;;;11.00;99.90;;;;;;5104520;27;20547;-60
2023/06/16 03:33:15;;;;;;;9.60;6.30;;;11.10;99.90;;;;;;5087977;28;20035;-59
2023/06/16 03:35:45;;;;;;;11.23;6.47;;;11.10;99.90;;;;;;5113499;28;20043;-59
2023/06/16 03:38:20;;;;;;;11.80;6.25;;;11.20;99.90;;;;;;5106064;27;20035;-60
2023/06/16 03:40:48;;;;;;;10.98;6.75;;;11.20;99.90;;;;;;5100709;28;20097;-60
2023/06/16 03:43:15;;;;;;;10.13;6.85;;;11.30;99.90;;;;;;5093053;28;20039;-59
2023/06/16 03:45:42;;;;;;;9.18;6.70;;;11.30;99.90;;;;;;5103780;27;20032;-59
2023/06/16 03:48:08;;;;;;;9.82;7.38;;;11.40;99.90;;;;;;5105798;27;20047;-59
2023/06/16 03:50:43;;;;;;;12.52;8.25;;;11.60;99.90;;;;;;5116655;27;20047;-60
2023/06/16 03:53:10;;;;;;;15.23;7.82;;;11.60;99.90;;;;;;5090238;27;20400;-60
2023/06/16 03:55:43;;;;;;;10.57;6.75;;;11.60;99.90;;;;;;5108392;27;20125;-60
2023/06/16 03:58:13;;;;;;;11.00;7.10;;;11.60;99.90;;;;;;5112524;27;20039;-59
2023/06/16 04:00:40;;;;;;;10.48;7.65;;;11.40;99.90;;;;;;5116499;27;20051;-59
2023/06/16 04:03:08;;;;;;;13.02;8.30;;;11.30;99.90;;;;;;5096953;27;20039;-60
2023/06/16 04:05:35;;;;;;;9.85;6.80;;;11.30;99.90;;;;;;5107765;27;20057;-59
2023/06/16 04:08:03;;;;;;;11.85;7.05;;;11.40;99.90;;;;;;5116330;27;20085;-60
2023/06/16 04:10:33;;;;;;;11.85;8.70;;;11.40;99.90;;;;;;5109377;28;20050;-60
2023/06/16 04:13:00;;;;;;;13.23;7.38;;;11.60;99.90;;;;;;5104167;28;20083;-60
2023/06/16 04:15:30;;;;;;;8.63;6.53;;;11.80;99.90;;;;;;5096062;28;20104;-60
2023/06/16 04:17:58;;;;;;;8.32;6.43;;;11.80;99.90;;;;;;5112278;27;20125;-60
2023/06/16 04:20:25;;;;;;;10.38;6.88;;;11.80;99.90;;;;;;5108434;27;20067;-59
2023/06/16 04:22:52;;;;;;;10.20;6.72;;;11.80;99.90;;;;;;5118549;27;20036;-60
2023/06/16 04:25:21;;;;;;;12.68;6.38;;;11.70;99.90;;;;;;5112204;28;20044;-60
2023/06/16 04:27:51;;;;;;;9.60;6.93;;;11.70;99.90;;;;;;5103226;27;20122;-60
2023/06/16 04:30:22;;;;;;;10.18;7.05;;;11.80;99.90;;;;;;5106662;28;20040;-60
2023/06/16 04:32:49;;;;;;;10.98;7.47;;;11.80;99.90;;;;;;5095206;28;20105;-60
2023/06/16 04:35:18;;;;;;;10.82;8.45;;;11.80;99.90;;;;;;5111866;28;20074;-59
2023/06/16 04:37:45;;;;;;;14.77;8.30;;;11.80;99.90;;;;;;5095871;28;20090;-60
2023/06/16 04:40:12;;;;;;;16.23;9.63;;;11.80;99.90;;;;;;5113581;27;20653;-60
2023/06/16 04:42:39;;;;;;;12.40;7.40;;;11.90;99.90;;;;;;5109072;28;20608;-60
2023/06/16 04:45:08;;;;;;;12.90;8.00;;;11.90;99.90;;;;;;5106001;27;20126;-60
2023/06/16 04:47:41;;;;;;;18.48;7.70;;;12.00;99.90;;;;;;5086380;28;20082;-59
2023/06/16 04:50:09;;;;;;;15.63;8.93;;;12.10;99.90;;;;;;5130350;27;20034;-58
2023/06/16 04:52:37;;;;;;;15.02;8.35;;;12.10;99.90;;;;;;5108861;28;20050;-60
2023/06/16 04:55:04;;;;;;;15.05;8.45;;;12.10;99.90;;;;;;5101117;28;20082;-60
2023/06/16 04:57:32;;;;;;;18.42;9.02;;;12.10;99.90;;;;;;5126150;27;20039;-60
2023/06/16 05:00:00;;;;;;;17.83;9.52;;;12.20;99.90;;;;;;5113803;27;20051;-59
2023/06/16 05:02:27;;;;;;;14.15;9.52;;;12.20;99.90;;;;;;5097187;28;20036;-59
2023/06/16 05:04:55;;;;;;;12.57;8.85;;;12.20;99.90;;;;;;5086079;28;20032;-60
2023/06/16 05:07:22;;;;;;;17.00;9.10;;;12.20;99.90;;;;;;5109536;27;20036;-59
2023/06/16 05:09:49;;;;;;;;;;;12.20;99.90;;;;;;5091132;27;20050;-60
2023/06/16 05:12:16;;;;;;;14.20;8.98;;;12.20;99.90;;;;;;5119509;27;19934;-60
2023/06/16 05:14:43;;;;;;;14.93;8.90;;;12.40;99.90;;;;;;5103986;27;20043;-60
2023/06/16 05:17:10;;;;;;;11.43;8.88;;;12.40;99.90;;;;;;5124962;27;20032;-60
2023/06/16 05:19:39;;;;;;;13.85;8.68;;;12.40;99.90;;;;;;5090440;28;20492;-60
2023/06/16 05:22:06;;;;;;;;;;;12.40;99.90;;;;;;5094804;28;20044;-60
2023/06/16 05:24:34;;;;;;;13.20;8.45;;;12.40;99.90;;;;;;5113534;27;19919;-60
2023/06/16 05:27:03;;;;;;;18.65;9.25;;;12.30;99.90;;;;;;5096114;28;20062;-60
2023/06/16 05:29:31;;;;;;;13.43;8.25;;;12.30;99.90;;;;;;5091472;28;20036;-60
2023/06/16 05:31:58;;;;;;;15.48;8.55;;;12.30;99.90;;;;;;5096295;27;20043;-60
2023/06/16 05:34:25;;;;;;;18.08;7.78;;;12.40;99.90;;;;;;5116704;27;20038;-60
2023/06/16 05:36:53;;;;;;;13.48;8.55;;;12.50;99.90;;;;;;5097339;28;20038;-60
2023/06/16 05:39:22;;;;;;;16.65;8.50;;;12.60;99.90;;;;;;5090898;28;20088;-59
2023/06/16 05:41:49;;;;;;;16.17;8.05;;;12.70;99.90;;;;;;5093719;28;20059;-60
2023/06/16 05:44:17;;;;;;;11.07;7.57;;;12.90;99.90;;;;;;5095927;27;20096;-60
2023/06/16 05:46:44;;;;;;;14.00;8.50;;;13.00;99.90;;;;;;5104723;27;20061;-60
2023/06/16 05:49:15;;;;;;;11.13;7.65;;;13.10;99.90;;;;;;5123274;27;20075;-60
2023/06/16 05:51:42;;;;;;;11.48;7.85;;;13.10;99.90;;;;;;5101822;28;20097;-60
2023/06/16 05:54:09;;;;;;;10.02;7.75;;;13.20;99.90;;;;;;5101366;27;20039;-60
2023/06/16 05:56:36;;;;;;;9.90;7.00;;;13.20;99.90;;;;;;5098736;27;20062;-60
2023/06/16 05:59:03;;;;;;;11.55;8.05;;;13.20;99.90;;;;;;5114310;27;20068;-60
2023/06/16 06:01:33;;;;;;;12.25;7.88;;;13.40;99.90;;;;;;5104664;27;20042;-58
2023/06/16 06:03:59;;;;;;;13.35;8.40;;;13.60;99.90;;;;;;5114003;27;20063;-60
2023/06/16 06:06:28;;;;;;;12.30;7.60;;;13.70;99.90;;;;;;5094180;28;20093;-59
2023/06/16 06:08:55;;;;;;;16.70;8.48;;;13.80;99.90;;;;;;5101316;27;20453;-60
2023/06/16 06:11:22;;;;;;;12.65;7.90;;;13.80;99.90;;;;;;5104942;27;20088;-60
2023/06/16 06:13:49;;;;;;;13.57;7.38;;;14.00;99.90;;;;;;5104968;28;20092;-60
2023/06/16 06:16:16;;;;;;;10.73;7.38;;;14.20;99.90;;;;;;5131910;27;20426;-60
2023/06/16 06:18:47;;;;;;;8.75;6.45;;;14.40;99.90;;;;;;5100992;28;20455;-59
2023/06/16 06:21:14;;;;;;;15.70;7.72;;;14.40;99.90;;;;;;5110432;28;20074;-60
2023/06/16 06:23:41;;;;;;;11.20;7.97;;;14.40;99.90;;;;;;5105352;28;20126;-59
2023/06/16 06:26:09;;;;;;;;;;;14.40;99.90;;;;;;5132865;27;20027;-60
2023/06/16 06:28:35;;;;;;;11.75;8.30;;;14.30;99.90;;;;;;5109128;28;20014;-60
2023/06/16 06:31:02;;;;;;;15.18;8.52;;;14.20;99.90;;;;;;5113042;27;20507;-61
2023/06/16 06:33:30;;;;;;;10.38;8.18;;;14.20;99.90;;;;;;5098248;28;20407;-60
2023/06/16 06:35:57;;;;;;;17.13;8.18;;;14.20;99.90;;;;;;5098097;28;20044;-60
2023/06/16 06:38:25;;;;;;;11.48;8.27;;;14.20;99.90;;;;;;5099318;28;20036;-60
2023/06/16 06:40:52;;;;;;;15.85;9.00;;;14.30;99.90;;;;;;5081915;28;20155;-61
2023/06/16 06:43:19;;;;;;;10.82;8.02;;;14.40;99.90;;;;;;5111673;28;20066;-58
2023/06/16 06:45:53;;;;;;;13.10;8.25;;;14.60;99.90;;;;;;5089025;28;20122;-59
2023/06/16 06:48:20;;;;;;;10.40;7.90;;;14.80;99.90;;;;;;5109284;28;20044;-60
2023/06/16 06:50:53;;;;;;;11.30;8.27;;;14.90;99.90;;;;;;5113882;27;20031;-61
2023/06/16 06:53:19;;;;;;;11.45;8.35;;;15.00;99.90;;;;;;5103407;28;20484;-59
2023/06/16 06:55:46;;;;;;;17.13;8.57;;;15.10;99.90;;;;;;5105708;28;20040;-60
2023/06/16 06:58:14;;;;;;;9.75;7.60;;;15.10;99.90;;;;;;5111925;28;20039;-60
2023/06/16 07:00:40;;;;;;;14.48;7.93;;;15.20;99.90;;;;;;5131924;28;20035;-59
2023/06/16 07:03:07;;;;;;;13.57;8.23;;;15.30;99.90;;;;;;5130350;27;20046;-61
2023/06/16 07:05:34;;;;;;;13.00;8.25;;;15.40;99.90;;;;;;5105748;28;20032;-59
2023/06/16 07:08:01;;;;;;;14.50;8.63;;;15.50;99.90;;;;;;5124301;28;20058;-60
2023/06/16 07:10:29;;;;;;;12.23;8.20;;;15.60;99.90;;;;;;5116103;28;20036;-60
2023/06/16 07:12:56;;;;;;;9.60;7.90;;;15.90;99.90;;;;;;5099763;28;20043;-61
2023/06/16 07:15:23;;;;;;;10.55;8.07;;;16.00;99.90;;;;;;5114909;28;20047;-60
2023/06/16 07:17:50;;;;;;;12.30;8.18;;;16.10;99.90;;;;;;5121885;27;20046;-58
2023/06/16 07:20:17;;;;;;;12.73;7.95;;;16.20;99.90;;;;;;5116422;27;20075;-61
2023/06/16 07:22:45;;;;;;;11.55;7.75;;;16.10;99.90;;;;;;5115181;28;20093;-60
2023/06/16 07:25:12;;;;;;;14.02;8.32;;;16.10;99.90;;;;;;5113209;28;20035;-61
2023/06/16 07:27:39;;;;;;;;;;;16.10;99.90;;;;;;5120852;27;20054;-60
2023/06/16 07:30:07;;;;;;;9.00;7.47;;;16.20;99.90;;;;;;5125735;27;19919;-60
2023/06/16 07:32:35;;;;;;;11.52;8.60;;;16.20;99.90;;;;;;5124007;27;20533;-60
2023/06/16 07:35:03;;;;;;;12.52;7.78;;;16.20;99.90;;;;;;5131729;27;20073;-60
2023/06/16 07:37:30;;;;;;;12.05;8.23;;;16.20;99.90;;;;;;5127653;27;20036;-60
2023/06/16 07:39:56;;;;;;;9.80;7.40;;;16.20;99.90;;;;;;5125816;27;20047;-59
2023/06/16 07:42:23;;;;;;;15.27;8.18;;;16.30;99.90;;;;;;5131983;27;20046;-58
2023/06/16 07:44:51;;;;;;;11.05;8.55;;;16.50;99.90;;;;;;5112354;27;20392;-60
2023/06/16 07:47:18;;;;;;;11.75;7.65;;;16.80;99.90;;;;;;5110890;27;20040;-60
2023/06/16 07:49:44;;;;;;;11.95;7.70;;;17.40;99.90;;;;;;5114665;28;20038;-60
2023/06/16 07:52:13;;;;;;;12.07;8.32;;;17.70;99.90;;;;;;5114488;27;20105;-59
2023/06/16 07:54:43;;;;;;;12.20;7.15;;;18.10;99.90;;;;;;5124853;27;20048;-60
2023/06/16 07:57:10;;;;;;;9.00;6.57;;;18.40;99.90;;;;;;5118340;27;20043;-60
2023/06/16 07:59:36;;;;;;;9.10;6.47;;;18.60;99.90;;;;;;5126822;27;20043;-60
2023/06/16 08:02:03;;;;;;;8.85;6.97;;;18.90;99.90;;;;;;5118682;27;20464;-60
2023/06/16 08:04:30;;;;;;;10.27;6.72;;;19.20;99.90;;;;;;5134576;27;20057;-60
2023/06/16 08:06:58;;;;;;;8.98;6.88;;;19.20;99.90;;;;;;5125867;27;20471;-58
2023/06/16 08:09:24;;;;;;;9.88;6.68;;;19.30;99.90;;;;;;5130253;27;20031;-59
2023/06/16 08:11:53;;;;;;;8.15;6.15;;;19.40;99.90;;;;;;5123305;27;20067;-58
2023/06/16 08:14:22;;;;;;;9.88;6.68;;;19.50;99.90;;;;;;5125176;27;20066;-58
2023/06/16 08:16:48;;;;;;;12.80;6.20;;;19.90;99.90;;;;;;5116202;27;20046;-60
2023/06/16 08:19:15;;;;;;;7.53;5.90;;;20.20;99.90;;;;;;5123866;27;20510;-60
2023/06/16 08:21:42;;;;;;;8.45;5.97;;;20.00;99.90;;;;;;5133827;27;20130;-61
2023/06/16 08:24:09;;;;;;;10.18;6.10;;;19.60;99.90;;;;;;5108074;27;20481;-59
2023/06/16 08:26:36;;;;;;;6.53;5.82;;;19.40;99.90;;;;;;5102635;28;20069;-60
2023/06/16 08:29:05;;;;;;;7.68;6.03;;;19.10;99.90;;;;;;5113985;28;20038;-57
2023/06/16 08:31:32;;;;;;;7.53;6.00;;;19.00;99.90;;;;;;5125412;27;20081;-61
2023/06/16 08:33:59;;;;;;;9.35;5.93;;;19.20;99.90;;;;;;5128689;27;20043;-57
2023/06/16 08:36:26;;;;;;;9.18;5.70;;;19.60;99.90;;;;;;5132557;27;20597;-59
2023/06/16 08:38:53;;;;;;;8.23;6.13;;;20.20;99.90;;;;;;5134256;27;20054;-59
2023/06/16 08:41:21;;;;;;;7.30;5.53;;;20.20;99.90;;;;;;5132064;27;20043;-59
2023/06/16 08:43:50;;;;;;;11.35;6.40;;;19.80;99.90;;;;;;5118220;27;20039;-60
2023/06/16 08:46:17;;;;;;;7.78;5.95;;;19.40;99.90;;;;;;5125594;27;20049;-58
2023/06/16 08:48:44;;;;;;;;;;;19.40;99.90;;;;;;5122716;27;20042;-57
2023/06/16 08:51:16;;;;;;;10.02;5.95;;;19.20;99.90;;;;;;5113294;27;19930;-60
2023/06/16 08:53:47;;;;;;;9.77;6.75;;;19.20;99.90;;;;;;5133299;27;20045;-59
2023/06/16 08:56:17;;;;;;;9.25;6.80;;;19.10;99.90;;;;;;5133990;27;20070;-60
2023/06/16 08:58:47;;;;;;;14.70;6.63;;;19.00;99.90;;;;;;5122725;27;20039;-59
2023/06/16 09:01:14;;;;;;;11.35;6.60;;;19.10;99.90;;;;;;5132857;27;20047;-59
2023/06/16 09:03:42;;;;;;;7.75;6.55;;;19.20;99.90;;;;;;5121533;27;20040;-60
2023/06/16 09:06:10;;;;;;;10.38;6.32;;;19.20;99.90;;;;;;5113075;27;20048;-59
2023/06/16 09:08:37;;;;;;;7.18;5.80;;;19.20;99.90;;;;;;5125790;27;20042;-60
2023/06/16 09:11:07;;;;;;;10.70;6.28;;;19.30;99.90;;;;;;5117964;27;20036;-58
2023/06/16 09:13:34;;;;;;;7.15;6.10;;;19.50;99.90;;;;;;5133418;27;20068;-60
2023/06/16 09:16:01;;;;;;;6.57;5.45;;;20.10;99.90;;;;;;5125699;27;20039;-59
2023/06/16 09:18:40;;;;;;;6.50;5.88;;;20.90;99.90;;;;;;5125102;27;20062;-59
2023/06/16 09:21:08;;;;;;;7.72;5.68;;;21.30;99.90;;;;;;5127154;27;20096;-59
2023/06/16 09:23:35;;;;;;;10.38;6.55;;;21.40;99.90;;;;;;5129903;27;20082;-60
2023/06/16 09:26:12;;;;;;;7.97;6.20;;;21.70;99.90;;;;;;5120089;27;20059;-58
2023/06/16 09:28:39;;;;;;;9.45;6.10;;;21.30;99.90;;;;;;5110829;27;20487;-59
2023/06/16 09:31:08;;;;;;;8.73;5.35;;;20.90;99.90;;;;;;5133148;27;20039;-59
2023/06/16 09:33:40;;;;;;;10.25;6.28;;;20.60;99.90;;;;;;5132723;27;20092;-60
2023/06/16 09:36:09;;;;;;;6.82;5.78;;;20.40;99.90;;;;;;5124627;27;20044;-59
2023/06/16 09:38:37;;;;;;;10.73;6.68;;;20.20;99.90;;;;;;5115941;27;20088;-59
2023/06/16 09:41:08;;;;;;;9.90;6.20;;;19.70;99.90;;;;;;5132870;27;20487;-57
2023/06/16 09:43:37;;;;;;;8.25;6.65;;;19.40;99.90;;;;;;5124240;27;20039;-59
2023/06/16 09:46:08;;;;;;;9.70;6.60;;;19.20;99.90;;;;;;5119448;27;20096;-59
2023/06/16 09:48:43;;;;;;;12.90;7.15;;;19.20;99.90;;;;;;5123844;27;20039;-59
2023/06/16 09:51:10;;;;;;;8.80;5.75;;;19.10;99.90;;;;;;5119166;27;20483;-59
2023/06/16 09:53:38;;;;;;;7.07;5.90;;;19.10;99.90;;;;;;5116134;27;20039;-59
2023/06/16 09:56:06;;;;;;;11.05;5.90;;;19.30;99.90;;;;;;5123857;27;20043;-59
2023/06/16 09:58:32;;;;;;;9.95;6.30;;;19.10;99.90;;;;;;5127145;27;20416;-59
2023/06/16 10:01:10;;;;;;;6.85;6.00;;;19.30;99.90;;;;;;5112376;27;20557;-59
2023/06/16 10:03:39;;;;;;;7.55;6.22;;;19.30;99.90;;;;;;5098726;28;20044;-59
2023/06/16 10:06:13;;;;;;;8.82;5.63;;;19.30;99.90;;;;;;5123382;27;20043;-59
2023/06/16 10:08:42;;;;;;;7.32;5.10;;;18.90;99.90;;;;;;5116438;27;20031;-59
2023/06/16 10:11:15;;;;;;;11.98;5.88;;;18.70;99.90;;;;;;5132425;27;20039;-59
2023/06/16 10:13:53;;;;;;;10.65;5.75;;;18.60;99.90;;;;;;5113392;27;20499;-59
2023/06/16 10:16:25;;;;;;;8.05;5.90;;;18.40;99.90;;;;;;5132679;27;20544;-57
2023/06/16 10:18:53;;;;;;;13.57;6.93;;;18.30;99.90;;;;;;5123525;27;20053;-60
2023/06/16 10:21:22;;;;;;;14.25;7.95;;;18.10;99.90;;;;;;5118078;27;20039;-59
2023/06/16 10:23:51;;;;;;;11.90;7.03;;;17.70;99.90;;;;;;5114291;27;20050;-59
2023/06/16 10:26:18;;;;;;;11.05;6.75;;;17.50;99.90;;;;;;5123687;28;20051;-59
2023/06/16 10:28:46;;;;;;;10.48;7.50;;;17.50;99.90;;;;;;5132658;28;20039;-59
2023/06/16 10:31:14;;;;;;;10.65;7.93;;;17.60;99.90;;;;;;5127075;27;20038;-59
2023/06/16 10:33:55;;;;;;;10.73;8.27;;;17.50;99.90;;;;;;5115445;28;20035;-59
2023/06/16 10:36:31;;;;;;;13.73;8.10;;;17.60;99.90;;;;;;5132338;28;20134;-59
2023/06/16 10:39:01;;;;;;;10.68;7.28;;;17.60;99.90;;;;;;5104006;28;20036;-59
2023/06/16 10:41:29;;;;;;;10.70;7.13;;;17.60;99.90;;;;;;5113143;28;20043;-59
2023/06/16 10:44:15;;;;;;;12.98;7.82;;;17.60;99.90;;;;;;5131994;28;20593;-60
2023/06/16 10:46:42;;;;;;;13.07;7.75;;;17.70;99.90;;;;;;5115548;27;20043;-60
2023/06/16 10:49:15;;;;;;;15.65;8.60;;;17.80;99.90;;;;;;5130268;27;20039;-59
2023/06/16 10:51:50;;;;;;;11.65;8.13;;;17.90;99.90;;;;;;5136306;27;20127;-60
2023/06/16 10:54:35;;;;;;;13.18;8.05;;;18.00;99.90;;;;;;5109055;27;20400;-57
2023/06/16 10:57:09;;;;;;;11.40;8.55;;;18.20;99.90;;;;;;5123455;27;20109;-59
2023/06/16 11:00:14;;;;;;;13.10;8.35;;;18.20;99.90;;;;;;5135862;27;20067;-60
2023/06/16 11:02:49;;;;;;;13.10;8.23;;;18.50;99.90;;;;;;5101981;27;20050;-59
2023/06/16 11:05:18;;;;;;;11.80;7.85;;;18.70;99.90;;;;;;5136160;27;20043;-60
2023/06/16 11:08:08;;;;;;;12.40;7.10;;;19.20;99.90;;;;;;5127850;27;20850;-58
2023/06/16 11:10:58;;;;;;;9.70;7.18;;;19.70;99.90;;;;;;5132581;27;20130;-60
2023/06/16 11:13:27;;;;;;;10.10;6.70;;;19.60;99.90;;;;;;5131289;27;20043;-59
2023/06/16 11:15:54;;;;;;;9.82;7.13;;;19.40;99.90;;;;;;5115493;27;20046;-60
2023/06/16 11:18:29;;;;;;;11.48;7.10;;;19.40;99.90;;;;;;5106341;28;20105;-60
2023/06/16 11:20:57;;;;;;;8.60;6.72;;;19.90;99.90;;;;;;5120542;27;20045;-58
2023/06/16 11:23:25;;;;;;;10.45;6.90;;;20.40;99.90;;;;;;5125769;27;20043;-59
2023/06/16 11:25:52;;;;;;;11.57;6.43;;;20.90;99.90;;;;;;5121497;27;20031;-58
2023/06/16 11:28:20;;;;;;;10.35;7.22;;;20.50;99.90;;;;;;5126705;27;20480;-58
2023/06/16 11:30:47;;;;;;;10.00;6.30;;;20.80;99.90;;;;;;5126821;27;20501;-58
2023/06/16 11:33:19;;;;;;;11.48;6.50;;;21.00;99.90;;;;;;5117227;27;20044;-60
2023/06/16 11:35:46;;;;;;;14.18;6.43;;;21.20;99.90;;;;;;5115194;28;20040;-60
2023/06/16 11:38:21;;;;;;;24.23;7.18;;;21.40;99.90;;;;;;5122625;27;20046;-59
2023/06/16 11:40:48;;;;;;;10.55;6.43;;;21.10;99.90;;;;;;5122745;27;20046;-60
2023/06/16 11:43:28;;;;;;;10.43;6.43;;;20.20;99.70;;;;;;5135469;27;20053;-60
2023/06/16 11:45:55;;;;;;;9.63;6.45;;;19.50;99.90;;;;;;5107440;27;20488;-60
2023/06/16 11:48:22;;;;;;;13.52;6.32;;;18.80;99.90;;;;;;5120950;27;20055;-57
2023/06/16 11:50:50;;;;;;;13.75;6.28;;;17.50;99.90;;;;;;5135228;27;20039;-59
2023/06/16 11:53:17;;;;;;;17.70;8.02;;;16.10;99.90;;;;;;5134588;27;20530;-59
2023/06/16 11:55:50;;;;;;;12.20;7.05;;;15.50;99.90;;;;;;5118520;27;20050;-60
2023/06/16 11:58:18;;;;;;;12.10;7.38;;;15.10;99.90;;;;;;5122595;27;20031;-60
2023/06/16 12:00:46;;;;;;;13.75;7.53;;;14.80;99.90;;;;;;5134162;27;20122;-59
2023/06/16 12:03:14;;;;;;;16.10;7.90;;;14.70;99.90;;;;;;5134703;27;20043;-59
2023/06/16 12:05:41;;;;;;;12.93;6.90;;;14.70;99.90;;;;;;5135086;27;20067;-59
2023/06/16 12:08:08;;;;;;;12.02;6.72;;;14.70;99.90;;;;;;5125782;27;20043;-60
2023/06/16 12:10:35;;;;;;;15.85;7.80;;;14.70;99.90;;;;;;5115571;27;20048;-59
2023/06/16 12:13:07;;;;;;;12.00;6.82;;;15.00;99.90;;;;;;5128695;27;20043;-59
2023/06/16 12:15:34;;;;;;;10.93;6.03;;;15.10;99.90;;;;;;5106291;27;20039;-57
2023/06/16 12:18:00;;;;;;;8.95;6.00;;;15.20;99.90;;;;;;5128641;27;20073;-60
2023/06/16 12:20:27;;;;;;;13.20;7.55;;;15.70;99.90;;;;;;5106838;27;20294;-59
2023/06/16 12:22:55;;;;;;;15.25;7.15;;;16.30;99.90;;;;;;5119916;27;20407;-60
2023/06/16 12:25:22;;;;;;;10.80;6.68;;;16.90;99.90;;;;;;5125734;27;20042;-58
2023/06/16 12:27:51;;;;;;;12.30;6.03;;;17.10;99.90;;;;;;5125567;27;20039;-60
2023/06/16 12:30:18;;;;;;;10.55;5.95;;;17.60;99.90;;;;;;5123447;27;20050;-60
2023/06/16 12:32:46;;;;;;;9.82;6.00;;;17.70;99.90;;;;;;5117614;27;20070;-59
2023/06/16 12:35:23;;;;;;;10.52;7.07;;;17.70;99.90;;;;;;5134235;27;20492;-60
2023/06/16 12:37:50;;;;;;;11.30;6.53;;;18.10;99.90;;;;;;5097950;28;20059;-59
2023/06/16 12:40:28;;;;;;;8.48;6.38;;;18.60;99.90;;;;;;5117580;27;20047;-60
2023/06/16 12:42:55;;;;;;;12.27;5.97;;;18.80;99.90;;;;;;5111344;27;20541;-59
2023/06/16 12:45:21;;;;;;;8.77;5.63;;;18.80;99.90;;;;;;5133827;27;20392;-59
2023/06/16 12:47:48;;;;;;;10.70;5.57;;;19.40;99.90;;;;;;5125960;27;20046;-59
2023/06/16 12:50:15;;;;;;;8.18;5.40;;;18.80;99.90;;;;;;5126596;27;20118;-58
2023/06/16 12:52:42;;;;;;;7.90;5.20;;;18.40;99.90;;;;;;5133973;27;20043;-59